sensor_id;sensor_type;location;lat;lon;timestamp;P1;durP1;ratioP1;P2;durP2;ratioP2
6858;SDS011;3468;42.824;23.240;2024-02-26T00:01:59;21.77;;;11.43;;
6858;SDS011;3468;42.824;23.240;2024-02-26T00:04:26;20.57;;;10.67;;
6858;SDS011;3468;42.824;23.240;2024-02-26T00:06:52;29.13;;;12.33;;
6858;SDS011;3468;42.824;23.240;2024-02-26T00:09:21;28.00;;;13.50;;
6858;SDS011;3468;42.824;23.240;2024-02-26T00:11:47;29.67;;;13.60;;
6858;SDS011;3468;42.824;23.240;2024-02-26T00:14:14;28.97;;;13.83;;
6858;SDS011;3468;42.824;23.240;2024-02-26T00:16:41;24.07;;;13.00;;
6858;SDS011;3468;42.824;23.240;2024-02-26T00:19:11;26.20;;;13.13;;
6858;SDS011;3468;42.824;23.240;2024-02-26T00:21:39;33.00;;;14.63;;
6858;SDS011;3468;42.824;23.240;2024-02-26T00:24:07;27.20;;;13.77;;
6858;SDS011;3468;42.824;23.240;2024-02-26T00:26:34;25.80;;;13.70;;
6858;SDS011;3468;42.824;23.240;2024-02-26T00:29:00;28.47;;;13.67;;
6858;SDS011;3468;42.824;23.240;2024-02-26T00:31:27;31.77;;;13.27;;
6858;SDS011;3468;42.824;23.240;2024-02-26T00:33:54;23.77;;;12.90;;
6858;SDS011;3468;42.824;23.240;2024-02-26T00:36:22;27.33;;;13.33;;
6858;SDS011;3468;42.824;23.240;2024-02-26T00:38:49;26.97;;;13.17;;
6858;SDS011;3468;42.824;23.240;2024-02-26T00:41:16;24.70;;;12.80;;
6858;SDS011;3468;42.824;23.240;2024-02-26T00:43:43;25.33;;;12.13;;
6858;SDS011;3468;42.824;23.240;2024-02-26T00:46:10;24.87;;;12.00;;
6858;SDS011;3468;42.824;23.240;2024-02-26T00:48:37;20.97;;;11.37;;
6858;SDS011;3468;42.824;23.240;2024-02-26T00:51:03;24.67;;;11.17;;
6858;SDS011;3468;42.824;23.240;2024-02-26T00:53:33;20.87;;;10.77;;
6858;SDS011;3468;42.824;23.240;2024-02-26T00:55:59;20.40;;;11.00;;
6858;SDS011;3468;42.824;23.240;2024-02-26T00:58:26;20.83;;;10.70;;
6858;SDS011;3468;42.824;23.240;2024-02-26T01:00:53;21.33;;;11.33;;
6858;SDS011;3468;42.824;23.240;2024-02-26T01:03:20;21.40;;;11.87;;
6858;SDS011;3468;42.824;23.240;2024-02-26T01:05:47;24.60;;;10.80;;
6858;SDS011;3468;42.824;23.240;2024-02-26T01:08:14;20.20;;;9.93;;
6858;SDS011;3468;42.824;23.240;2024-02-26T01:10:42;19.47;;;10.87;;
6858;SDS011;3468;42.824;23.240;2024-02-26T01:13:08;22.57;;;9.87;;
6858;SDS011;3468;42.824;23.240;2024-02-26T01:15:35;17.53;;;9.83;;
6858;SDS011;3468;42.824;23.240;2024-02-26T01:18:02;18.70;;;9.93;;
6858;SDS011;3468;42.824;23.240;2024-02-26T01:20:29;19.17;;;10.03;;
6858;SDS011;3468;42.824;23.240;2024-02-26T01:22:55;18.47;;;10.47;;
6858;SDS011;3468;42.824;23.240;2024-02-26T01:25:22;27.53;;;12.43;;
6858;SDS011;3468;42.824;23.240;2024-02-26T01:27:50;22.60;;;12.03;;
6858;SDS011;3468;42.824;23.240;2024-02-26T01:30:17;25.47;;;12.67;;
6858;SDS011;3468;42.824;23.240;2024-02-26T01:32:44;24.63;;;12.80;;
6858;SDS011;3468;42.824;23.240;2024-02-26T01:35:10;25.57;;;12.63;;
6858;SDS011;3468;42.824;23.240;2024-02-26T01:37:37;26.03;;;13.03;;
6858;SDS011;3468;42.824;23.240;2024-02-26T01:40:05;29.33;;;12.80;;
6858;SDS011;3468;42.824;23.240;2024-02-26T01:42:32;27.77;;;13.77;;
6858;SDS011;3468;42.824;23.240;2024-02-26T01:45:00;26.37;;;13.13;;
6858;SDS011;3468;42.824;23.240;2024-02-26T01:47:27;23.90;;;13.93;;
6858;SDS011;3468;42.824;23.240;2024-02-26T01:49:55;29.53;;;13.80;;
6858;SDS011;3468;42.824;23.240;2024-02-26T01:52:22;27.03;;;12.37;;
6858;SDS011;3468;42.824;23.240;2024-02-26T01:54:49;27.07;;;12.87;;
6858;SDS011;3468;42.824;23.240;2024-02-26T01:57:16;30.27;;;13.40;;
6858;SDS011;3468;42.824;23.240;2024-02-26T01:59:43;23.67;;;13.40;;
6858;SDS011;3468;42.824;23.240;2024-02-26T02:02:12;21.90;;;12.83;;
6858;SDS011;3468;42.824;23.240;2024-02-26T02:04:41;28.07;;;13.87;;
6858;SDS011;3468;42.824;23.240;2024-02-26T02:07:08;27.90;;;15.03;;
6858;SDS011;3468;42.824;23.240;2024-02-26T02:09:35;32.50;;;14.70;;
6858;SDS011;3468;42.824;23.240;2024-02-26T02:12:02;37.20;;;16.60;;
6858;SDS011;3468;42.824;23.240;2024-02-26T02:14:29;31.53;;;15.50;;
6858;SDS011;3468;42.824;23.240;2024-02-26T02:16:57;27.97;;;15.90;;
6858;SDS011;3468;42.824;23.240;2024-02-26T02:19:25;32.73;;;16.83;;
6858;SDS011;3468;42.824;23.240;2024-02-26T02:21:53;32.97;;;16.73;;
6858;SDS011;3468;42.824;23.240;2024-02-26T02:24:20;32.33;;;16.00;;
6858;SDS011;3468;42.824;23.240;2024-02-26T02:26:46;26.73;;;13.63;;
6858;SDS011;3468;42.824;23.240;2024-02-26T02:29:13;26.17;;;14.13;;
6858;SDS011;3468;42.824;23.240;2024-02-26T02:31:41;31.80;;;15.27;;
6858;SDS011;3468;42.824;23.240;2024-02-26T02:34:08;29.03;;;14.63;;
6858;SDS011;3468;42.824;23.240;2024-02-26T02:36:47;38.40;;;18.13;;
6858;SDS011;3468;42.824;23.240;2024-02-26T02:39:16;26.40;;;13.00;;
6858;SDS011;3468;42.824;23.240;2024-02-26T02:41:43;31.03;;;14.07;;
6858;SDS011;3468;42.824;23.240;2024-02-26T02:44:10;22.50;;;12.67;;
6858;SDS011;3468;42.824;23.240;2024-02-26T02:46:36;25.33;;;12.47;;
6858;SDS011;3468;42.824;23.240;2024-02-26T02:49:03;22.83;;;12.87;;
6858;SDS011;3468;42.824;23.240;2024-02-26T02:51:30;22.00;;;12.63;;
6858;SDS011;3468;42.824;23.240;2024-02-26T02:53:57;25.83;;;12.17;;
6858;SDS011;3468;42.824;23.240;2024-02-26T02:56:25;18.20;;;10.67;;
6858;SDS011;3468;42.824;23.240;2024-02-26T02:58:51;17.13;;;10.53;;
6858;SDS011;3468;42.824;23.240;2024-02-26T03:01:18;20.03;;;10.70;;
6858;SDS011;3468;42.824;23.240;2024-02-26T03:03:45;18.37;;;9.93;;
6858;SDS011;3468;42.824;23.240;2024-02-26T03:06:11;21.67;;;10.27;;
6858;SDS011;3468;42.824;23.240;2024-02-26T03:08:38;16.83;;;10.47;;
6858;SDS011;3468;42.824;23.240;2024-02-26T03:11:06;19.03;;;10.47;;
6858;SDS011;3468;42.824;23.240;2024-02-26T03:13:35;18.93;;;10.50;;
6858;SDS011;3468;42.824;23.240;2024-02-26T03:16:04;18.47;;;10.07;;
6858;SDS011;3468;42.824;23.240;2024-02-26T03:18:31;18.67;;;10.63;;
6858;SDS011;3468;42.824;23.240;2024-02-26T03:20:57;23.60;;;10.20;;
6858;SDS011;3468;42.824;23.240;2024-02-26T03:23:24;17.33;;;10.13;;
6858;SDS011;3468;42.824;23.240;2024-02-26T03:25:51;18.57;;;10.20;;
6858;SDS011;3468;42.824;23.240;2024-02-26T03:28:17;16.77;;;10.10;;
6858;SDS011;3468;42.824;23.240;2024-02-26T03:30:45;18.07;;;10.57;;
6858;SDS011;3468;42.824;23.240;2024-02-26T03:33:12;22.73;;;11.40;;
6858;SDS011;3468;42.824;23.240;2024-02-26T03:35:39;18.13;;;10.90;;
6858;SDS011;3468;42.824;23.240;2024-02-26T03:38:06;20.03;;;10.80;;
6858;SDS011;3468;42.824;23.240;2024-02-26T03:40:32;21.20;;;11.33;;
6858;SDS011;3468;42.824;23.240;2024-02-26T03:42:59;16.73;;;10.10;;
6858;SDS011;3468;42.824;23.240;2024-02-26T03:45:26;16.80;;;10.00;;
6858;SDS011;3468;42.824;23.240;2024-02-26T03:47:54;17.90;;;10.43;;
6858;SDS011;3468;42.824;23.240;2024-02-26T03:50:21;16.60;;;9.73;;
6858;SDS011;3468;42.824;23.240;2024-02-26T03:52:47;20.03;;;10.33;;
6858;SDS011;3468;42.824;23.240;2024-02-26T03:55:14;21.23;;;11.87;;
6858;SDS011;3468;42.824;23.240;2024-02-26T03:57:43;16.57;;;9.30;;
6858;SDS011;3468;42.824;23.240;2024-02-26T04:00:10;15.67;;;10.03;;
6858;SDS011;3468;42.824;23.240;2024-02-26T04:02:38;18.50;;;10.27;;
6858;SDS011;3468;42.824;23.240;2024-02-26T04:05:08;12.90;;;8.90;;
6858;SDS011;3468;42.824;23.240;2024-02-26T04:07:36;18.97;;;9.83;;
6858;SDS011;3468;42.824;23.240;2024-02-26T04:10:03;21.30;;;10.63;;
6858;SDS011;3468;42.824;23.240;2024-02-26T04:12:34;18.07;;;9.50;;
6858;SDS011;3468;42.824;23.240;2024-02-26T04:15:01;21.77;;;11.47;;
6858;SDS011;3468;42.824;23.240;2024-02-26T04:17:27;17.90;;;9.57;;
6858;SDS011;3468;42.824;23.240;2024-02-26T04:19:54;20.20;;;11.37;;
6858;SDS011;3468;42.824;23.240;2024-02-26T04:22:22;27.67;;;13.20;;
6858;SDS011;3468;42.824;23.240;2024-02-26T04:24:49;21.43;;;12.37;;
6858;SDS011;3468;42.824;23.240;2024-02-26T04:27:16;22.10;;;11.77;;
6858;SDS011;3468;42.824;23.240;2024-02-26T04:29:42;25.90;;;12.47;;
6858;SDS011;3468;42.824;23.240;2024-02-26T04:32:09;22.70;;;12.23;;
6858;SDS011;3468;42.824;23.240;2024-02-26T04:34:36;23.90;;;13.00;;
6858;SDS011;3468;42.824;23.240;2024-02-26T04:37:03;29.57;;;14.37;;
6858;SDS011;3468;42.824;23.240;2024-02-26T04:39:31;24.67;;;12.57;;
6858;SDS011;3468;42.824;23.240;2024-02-26T04:41:57;22.00;;;12.03;;
6858;SDS011;3468;42.824;23.240;2024-02-26T04:44:24;26.80;;;12.33;;
6858;SDS011;3468;42.824;23.240;2024-02-26T04:46:51;21.90;;;12.03;;
6858;SDS011;3468;42.824;23.240;2024-02-26T04:49:18;25.60;;;12.30;;
6858;SDS011;3468;42.824;23.240;2024-02-26T04:51:44;25.90;;;13.40;;
6858;SDS011;3468;42.824;23.240;2024-02-26T04:54:13;27.73;;;13.63;;
6858;SDS011;3468;42.824;23.240;2024-02-26T04:56:41;25.03;;;13.53;;
6858;SDS011;3468;42.824;23.240;2024-02-26T04:59:08;26.33;;;12.70;;
6858;SDS011;3468;42.824;23.240;2024-02-26T05:01:35;27.73;;;13.60;;
6858;SDS011;3468;42.824;23.240;2024-02-26T05:04:02;38.47;;;20.50;;
6858;SDS011;3468;42.824;23.240;2024-02-26T05:06:29;41.60;;;19.77;;
6858;SDS011;3468;42.824;23.240;2024-02-26T05:08:56;26.30;;;14.67;;
6858;SDS011;3468;42.824;23.240;2024-02-26T05:11:22;25.60;;;14.67;;
6858;SDS011;3468;42.824;23.240;2024-02-26T05:13:50;25.03;;;14.70;;
6858;SDS011;3468;42.824;23.240;2024-02-26T05:16:17;27.20;;;12.67;;
6858;SDS011;3468;42.824;23.240;2024-02-26T05:18:46;22.23;;;14.17;;
6858;SDS011;3468;42.824;23.240;2024-02-26T05:21:13;20.10;;;11.77;;
6858;SDS011;3468;42.824;23.240;2024-02-26T05:23:39;21.17;;;12.03;;
6858;SDS011;3468;42.824;23.240;2024-02-26T05:26:08;26.27;;;12.33;;
6858;SDS011;3468;42.824;23.240;2024-02-26T05:28:34;22.43;;;12.33;;
6858;SDS011;3468;42.824;23.240;2024-02-26T05:31:04;23.77;;;11.63;;
6858;SDS011;3468;42.824;23.240;2024-02-26T05:33:30;23.60;;;12.93;;
6858;SDS011;3468;42.824;23.240;2024-02-26T05:35:57;28.23;;;13.27;;
6858;SDS011;3468;42.824;23.240;2024-02-26T05:38:29;22.70;;;12.70;;
6858;SDS011;3468;42.824;23.240;2024-02-26T05:40:56;27.93;;;13.50;;
6858;SDS011;3468;42.824;23.240;2024-02-26T05:43:24;26.37;;;12.73;;
6858;SDS011;3468;42.824;23.240;2024-02-26T05:45:50;26.70;;;13.93;;
6858;SDS011;3468;42.824;23.240;2024-02-26T05:48:18;29.47;;;14.20;;
6858;SDS011;3468;42.824;23.240;2024-02-26T05:50:45;27.83;;;13.63;;
6858;SDS011;3468;42.824;23.240;2024-02-26T05:53:12;32.53;;;14.57;;
6858;SDS011;3468;42.824;23.240;2024-02-26T05:55:39;70.53;;;23.87;;
6858;SDS011;3468;42.824;23.240;2024-02-26T05:58:05;87.83;;;29.60;;
6858;SDS011;3468;42.824;23.240;2024-02-26T06:00:32;99.60;;;31.57;;
6858;SDS011;3468;42.824;23.240;2024-02-26T06:02:59;97.87;;;31.83;;
6858;SDS011;3468;42.824;23.240;2024-02-26T06:05:28;68.77;;;23.67;;
6858;SDS011;3468;42.824;23.240;2024-02-26T06:07:55;58.27;;;19.13;;
6858;SDS011;3468;42.824;23.240;2024-02-26T06:10:22;39.47;;;16.67;;
6858;SDS011;3468;42.824;23.240;2024-02-26T06:12:48;43.87;;;17.50;;
6858;SDS011;3468;42.824;23.240;2024-02-26T06:15:15;38.33;;;15.97;;
6858;SDS011;3468;42.824;23.240;2024-02-26T06:17:42;32.23;;;13.80;;
6858;SDS011;3468;42.824;23.240;2024-02-26T06:20:09;27.40;;;13.40;;
6858;SDS011;3468;42.824;23.240;2024-02-26T06:22:39;36.57;;;14.67;;
6858;SDS011;3468;42.824;23.240;2024-02-26T06:25:07;36.53;;;15.57;;
6858;SDS011;3468;42.824;23.240;2024-02-26T06:27:34;37.20;;;15.40;;
6858;SDS011;3468;42.824;23.240;2024-02-26T06:30:01;38.87;;;16.00;;
6858;SDS011;3468;42.824;23.240;2024-02-26T06:32:28;40.03;;;18.70;;
6858;SDS011;3468;42.824;23.240;2024-02-26T06:34:55;38.53;;;19.20;;
6858;SDS011;3468;42.824;23.240;2024-02-26T06:37:21;47.67;;;20.27;;
6858;SDS011;3468;42.824;23.240;2024-02-26T06:39:49;54.10;;;23.90;;
6858;SDS011;3468;42.824;23.240;2024-02-26T06:42:17;57.97;;;25.80;;
6858;SDS011;3468;42.824;23.240;2024-02-26T06:44:44;48.33;;;23.97;;
6858;SDS011;3468;42.824;23.240;2024-02-26T06:47:11;44.90;;;18.80;;
6858;SDS011;3468;42.824;23.240;2024-02-26T06:49:37;35.43;;;16.87;;
6858;SDS011;3468;42.824;23.240;2024-02-26T06:52:04;37.00;;;16.87;;
6858;SDS011;3468;42.824;23.240;2024-02-26T06:54:31;40.10;;;17.33;;
6858;SDS011;3468;42.824;23.240;2024-02-26T06:57:00;30.83;;;16.70;;
6858;SDS011;3468;42.824;23.240;2024-02-26T06:59:26;38.53;;;18.27;;
6858;SDS011;3468;42.824;23.240;2024-02-26T07:01:53;35.20;;;19.33;;
6858;SDS011;3468;42.824;23.240;2024-02-26T07:04:20;35.30;;;18.60;;
6858;SDS011;3468;42.824;23.240;2024-02-26T07:06:47;39.37;;;19.67;;
6858;SDS011;3468;42.824;23.240;2024-02-26T07:09:14;44.63;;;20.37;;
6858;SDS011;3468;42.824;23.240;2024-02-26T07:11:41;39.43;;;20.30;;
6858;SDS011;3468;42.824;23.240;2024-02-26T07:14:10;36.97;;;20.00;;
6858;SDS011;3468;42.824;23.240;2024-02-26T07:16:38;32.10;;;16.53;;
6858;SDS011;3468;42.824;23.240;2024-02-26T07:19:05;30.53;;;16.87;;
6858;SDS011;3468;42.824;23.240;2024-02-26T07:21:32;24.47;;;15.00;;
6858;SDS011;3468;42.824;23.240;2024-02-26T07:23:59;21.37;;;12.47;;
6858;SDS011;3468;42.824;23.240;2024-02-26T07:26:25;22.60;;;13.20;;
6858;SDS011;3468;42.824;23.240;2024-02-26T07:28:52;28.77;;;14.83;;
6858;SDS011;3468;42.824;23.240;2024-02-26T07:31:20;29.30;;;16.10;;
6858;SDS011;3468;42.824;23.240;2024-02-26T07:33:47;29.90;;;15.30;;
6858;SDS011;3468;42.824;23.240;2024-02-26T07:36:14;38.33;;;19.70;;
6858;SDS011;3468;42.824;23.240;2024-02-26T07:38:40;34.70;;;17.73;;
6858;SDS011;3468;42.824;23.240;2024-02-26T07:41:07;29.93;;;16.83;;
6858;SDS011;3468;42.824;23.240;2024-02-26T07:43:34;33.90;;;15.60;;
6858;SDS011;3468;42.824;23.240;2024-02-26T07:46:01;29.70;;;15.63;;
6858;SDS011;3468;42.824;23.240;2024-02-26T07:48:29;27.57;;;16.50;;
6858;SDS011;3468;42.824;23.240;2024-02-26T07:50:56;27.87;;;16.87;;
6858;SDS011;3468;42.824;23.240;2024-02-26T07:53:24;24.70;;;13.60;;
6858;SDS011;3468;42.824;23.240;2024-02-26T07:55:50;23.07;;;13.17;;
6858;SDS011;3468;42.824;23.240;2024-02-26T07:58:17;20.00;;;11.53;;
6858;SDS011;3468;42.824;23.240;2024-02-26T08:00:44;16.37;;;9.37;;
6858;SDS011;3468;42.824;23.240;2024-02-26T08:03:11;10.57;;;6.67;;
6858;SDS011;3468;42.824;23.240;2024-02-26T08:05:42;12.50;;;5.80;;
6858;SDS011;3468;42.824;23.240;2024-02-26T08:08:09;9.17;;;5.57;;
6858;SDS011;3468;42.824;23.240;2024-02-26T08:10:35;8.33;;;5.53;;
6858;SDS011;3468;42.824;23.240;2024-02-26T08:13:02;12.63;;;5.53;;
6858;SDS011;3468;42.824;23.240;2024-02-26T08:15:31;10.37;;;5.83;;
6858;SDS011;3468;42.824;23.240;2024-02-26T08:18:00;10.53;;;6.07;;
6858;SDS011;3468;42.824;23.240;2024-02-26T08:20:28;10.83;;;5.37;;
6858;SDS011;3468;42.824;23.240;2024-02-26T08:22:57;8.57;;;4.70;;
6858;SDS011;3468;42.824;23.240;2024-02-26T08:25:23;8.37;;;5.13;;
6858;SDS011;3468;42.824;23.240;2024-02-26T08:27:51;7.53;;;4.20;;
6858;SDS011;3468;42.824;23.240;2024-02-26T08:30:18;7.50;;;4.53;;
6858;SDS011;3468;42.824;23.240;2024-02-26T08:32:45;8.70;;;4.80;;
6858;SDS011;3468;42.824;23.240;2024-02-26T08:35:11;7.57;;;4.33;;
6858;SDS011;3468;42.824;23.240;2024-02-26T08:37:39;10.33;;;5.00;;
6858;SDS011;3468;42.824;23.240;2024-02-26T08:40:08;6.30;;;4.13;;
6858;SDS011;3468;42.824;23.240;2024-02-26T08:42:34;6.60;;;4.33;;
6858;SDS011;3468;42.824;23.240;2024-02-26T08:45:02;9.70;;;4.60;;
6858;SDS011;3468;42.824;23.240;2024-02-26T08:47:29;7.87;;;4.20;;
6858;SDS011;3468;42.824;23.240;2024-02-26T08:49:55;7.60;;;4.97;;
6858;SDS011;3468;42.824;23.240;2024-02-26T08:52:22;9.73;;;5.50;;
6858;SDS011;3468;42.824;23.240;2024-02-26T08:54:49;11.90;;;5.43;;
6858;SDS011;3468;42.824;23.240;2024-02-26T08:57:17;7.53;;;5.20;;
6858;SDS011;3468;42.824;23.240;2024-02-26T08:59:44;10.27;;;5.10;;
6858;SDS011;3468;42.824;23.240;2024-02-26T09:02:10;9.50;;;5.70;;
6858;SDS011;3468;42.824;23.240;2024-02-26T09:04:37;8.43;;;4.73;;
6858;SDS011;3468;42.824;23.240;2024-02-26T09:07:04;9.03;;;5.67;;
6858;SDS011;3468;42.824;23.240;2024-02-26T09:09:31;9.87;;;6.03;;
6858;SDS011;3468;42.824;23.240;2024-02-26T09:11:58;9.53;;;6.50;;
6858;SDS011;3468;42.824;23.240;2024-02-26T09:14:26;9.17;;;5.53;;
6858;SDS011;3468;42.824;23.240;2024-02-26T09:16:53;13.53;;;6.27;;
6858;SDS011;3468;42.824;23.240;2024-02-26T09:19:19;10.27;;;6.37;;
6858;SDS011;3468;42.824;23.240;2024-02-26T09:21:46;10.07;;;6.23;;
6858;SDS011;3468;42.824;23.240;2024-02-26T09:24:13;12.77;;;6.97;;
6858;SDS011;3468;42.824;23.240;2024-02-26T09:26:40;10.93;;;6.80;;
6858;SDS011;3468;42.824;23.240;2024-02-26T09:29:06;13.70;;;6.73;;
6858;SDS011;3468;42.824;23.240;2024-02-26T09:31:35;12.17;;;6.70;;
6858;SDS011;3468;42.824;23.240;2024-02-26T09:34:01;12.80;;;6.73;;
6858;SDS011;3468;42.824;23.240;2024-02-26T09:36:28;10.47;;;6.70;;
6858;SDS011;3468;42.824;23.240;2024-02-26T09:38:56;14.83;;;6.83;;
6858;SDS011;3468;42.824;23.240;2024-02-26T09:41:22;11.57;;;6.43;;
6858;SDS011;3468;42.824;23.240;2024-02-26T09:43:49;11.90;;;6.80;;
6858;SDS011;3468;42.824;23.240;2024-02-26T09:46:22;11.00;;;7.77;;
6858;SDS011;3468;42.824;23.240;2024-02-26T09:48:50;10.80;;;6.37;;
6858;SDS011;3468;42.824;23.240;2024-02-26T09:51:17;12.83;;;7.13;;
6858;SDS011;3468;42.824;23.240;2024-02-26T09:53:45;10.17;;;7.13;;
6858;SDS011;3468;42.824;23.240;2024-02-26T09:56:14;10.47;;;7.37;;
6858;SDS011;3468;42.824;23.240;2024-02-26T09:58:41;11.50;;;6.60;;
6858;SDS011;3468;42.824;23.240;2024-02-26T10:01:11;10.77;;;7.17;;
6858;SDS011;3468;42.824;23.240;2024-02-26T10:03:42;11.70;;;7.40;;
6858;SDS011;3468;42.824;23.240;2024-02-26T10:06:12;12.90;;;6.97;;
6858;SDS011;3468;42.824;23.240;2024-02-26T10:08:39;10.50;;;7.23;;
6858;SDS011;3468;42.824;23.240;2024-02-26T10:11:06;13.70;;;8.07;;
6858;SDS011;3468;42.824;23.240;2024-02-26T10:13:36;12.37;;;6.77;;
6858;SDS011;3468;42.824;23.240;2024-02-26T10:16:03;12.70;;;7.50;;
6858;SDS011;3468;42.824;23.240;2024-02-26T10:18:44;11.70;;;7.50;;
6858;SDS011;3468;42.824;23.240;2024-02-26T10:21:13;11.93;;;7.30;;
6858;SDS011;3468;42.824;23.240;2024-02-26T10:23:41;11.17;;;6.63;;
6858;SDS011;3468;42.824;23.240;2024-02-26T10:26:08;12.87;;;7.37;;
6858;SDS011;3468;42.824;23.240;2024-02-26T10:28:36;12.03;;;6.37;;
6858;SDS011;3468;42.824;23.240;2024-02-26T10:31:03;9.57;;;6.30;;
6858;SDS011;3468;42.824;23.240;2024-02-26T10:33:30;9.47;;;6.27;;
6858;SDS011;3468;42.824;23.240;2024-02-26T10:35:59;10.03;;;6.80;;
6858;SDS011;3468;42.824;23.240;2024-02-26T10:38:27;13.73;;;6.93;;
6858;SDS011;3468;42.824;23.240;2024-02-26T10:40:53;10.63;;;6.80;;
6858;SDS011;3468;42.824;23.240;2024-02-26T10:43:20;10.30;;;5.60;;
6858;SDS011;3468;42.824;23.240;2024-02-26T10:45:47;10.70;;;4.97;;
6858;SDS011;3468;42.824;23.240;2024-02-26T10:48:14;8.77;;;4.87;;
6858;SDS011;3468;42.824;23.240;2024-02-26T10:50:42;7.07;;;4.33;;
6858;SDS011;3468;42.824;23.240;2024-02-26T10:53:12;10.90;;;4.93;;
6858;SDS011;3468;42.824;23.240;2024-02-26T10:55:43;8.57;;;4.90;;
6858;SDS011;3468;42.824;23.240;2024-02-26T10:58:14;9.60;;;4.73;;
6858;SDS011;3468;42.824;23.240;2024-02-26T11:00:43;9.83;;;5.03;;
6858;SDS011;3468;42.824;23.240;2024-02-26T11:03:12;9.63;;;5.37;;
6858;SDS011;3468;42.824;23.240;2024-02-26T11:05:42;9.13;;;4.97;;
6858;SDS011;3468;42.824;23.240;2024-02-26T11:08:10;5.80;;;4.83;;
6858;SDS011;3468;42.824;23.240;2024-02-26T11:10:38;6.60;;;4.53;;
6858;SDS011;3468;42.824;23.240;2024-02-26T11:13:08;6.47;;;4.63;;
6858;SDS011;3468;42.824;23.240;2024-02-26T11:15:38;10.67;;;4.90;;
6858;SDS011;3468;42.824;23.240;2024-02-26T11:18:06;9.00;;;5.40;;
6858;SDS011;3468;42.824;23.240;2024-02-26T11:20:34;8.77;;;4.17;;
6858;SDS011;3468;42.824;23.240;2024-02-26T11:23:04;7.73;;;5.57;;
6858;SDS011;3468;42.824;23.240;2024-02-26T11:25:31;8.40;;;5.17;;
6858;SDS011;3468;42.824;23.240;2024-02-26T11:27:58;8.73;;;4.80;;
6858;SDS011;3468;42.824;23.240;2024-02-26T11:30:30;6.97;;;4.90;;
6858;SDS011;3468;42.824;23.240;2024-02-26T11:32:59;7.73;;;5.23;;
6858;SDS011;3468;42.824;23.240;2024-02-26T11:35:26;9.10;;;5.47;;
6858;SDS011;3468;42.824;23.240;2024-02-26T11:37:56;8.17;;;5.17;;
6858;SDS011;3468;42.824;23.240;2024-02-26T11:40:23;7.37;;;4.80;;
6858;SDS011;3468;42.824;23.240;2024-02-26T11:42:51;6.37;;;4.60;;
6858;SDS011;3468;42.824;23.240;2024-02-26T11:48:23;7.60;;;4.43;;
6858;SDS011;3468;42.824;23.240;2024-02-26T11:50:51;5.53;;;3.97;;
6858;SDS011;3468;42.824;23.240;2024-02-26T11:53:19;7.23;;;4.33;;
6858;SDS011;3468;42.824;23.240;2024-02-26T11:55:46;5.60;;;4.13;;
6858;SDS011;3468;42.824;23.240;2024-02-26T11:58:13;8.03;;;4.20;;
6858;SDS011;3468;42.824;23.240;2024-02-26T12:00:40;8.07;;;4.30;;
6858;SDS011;3468;42.824;23.240;2024-02-26T12:03:06;6.50;;;3.63;;
6858;SDS011;3468;42.824;23.240;2024-02-26T12:05:36;7.00;;;3.60;;
6858;SDS011;3468;42.824;23.240;2024-02-26T12:08:04;5.43;;;3.67;;
6858;SDS011;3468;42.824;23.240;2024-02-26T12:10:33;7.57;;;4.73;;
6858;SDS011;3468;42.824;23.240;2024-02-26T12:13:05;8.77;;;4.40;;
6858;SDS011;3468;42.824;23.240;2024-02-26T12:15:34;7.47;;;3.97;;
6858;SDS011;3468;42.824;23.240;2024-02-26T12:18:03;10.77;;;4.10;;
6858;SDS011;3468;42.824;23.240;2024-02-26T12:20:31;10.60;;;4.20;;
6858;SDS011;3468;42.824;23.240;2024-02-26T12:22:59;8.50;;;4.10;;
6858;SDS011;3468;42.824;23.240;2024-02-26T12:25:28;7.33;;;4.20;;
6858;SDS011;3468;42.824;23.240;2024-02-26T12:27:56;7.10;;;3.97;;
6858;SDS011;3468;42.824;23.240;2024-02-26T12:30:23;7.17;;;3.50;;
6858;SDS011;3468;42.824;23.240;2024-02-26T12:32:52;5.67;;;3.83;;
6858;SDS011;3468;42.824;23.240;2024-02-26T12:35:22;6.87;;;3.83;;
6858;SDS011;3468;42.824;23.240;2024-02-26T12:37:49;5.23;;;4.03;;
6858;SDS011;3468;42.824;23.240;2024-02-26T12:40:18;4.97;;;3.70;;
6858;SDS011;3468;42.824;23.240;2024-02-26T12:42:45;5.13;;;3.53;;
6858;SDS011;3468;42.824;23.240;2024-02-26T12:45:12;8.10;;;4.00;;
6858;SDS011;3468;42.824;23.240;2024-02-26T12:47:41;6.17;;;3.30;;
6858;SDS011;3468;42.824;23.240;2024-02-26T12:50:09;6.87;;;3.50;;
6858;SDS011;3468;42.824;23.240;2024-02-26T12:52:37;7.80;;;3.60;;
6858;SDS011;3468;42.824;23.240;2024-02-26T12:55:06;7.97;;;4.10;;
6858;SDS011;3468;42.824;23.240;2024-02-26T12:57:36;10.03;;;4.27;;
6858;SDS011;3468;42.824;23.240;2024-02-26T13:00:04;9.63;;;3.73;;
6858;SDS011;3468;42.824;23.240;2024-02-26T13:02:34;12.57;;;4.10;;
6858;SDS011;3468;42.824;23.240;2024-02-26T13:05:02;4.90;;;3.43;;
6858;SDS011;3468;42.824;23.240;2024-02-26T13:07:30;8.33;;;4.20;;
6858;SDS011;3468;42.824;23.240;2024-02-26T13:09:57;8.77;;;5.00;;
6858;SDS011;3468;42.824;23.240;2024-02-26T13:12:24;5.87;;;3.97;;
6858;SDS011;3468;42.824;23.240;2024-02-26T13:14:59;7.30;;;3.67;;
6858;SDS011;3468;42.824;23.240;2024-02-26T13:17:26;5.17;;;3.07;;
6858;SDS011;3468;42.824;23.240;2024-02-26T13:19:54;9.17;;;4.27;;
6858;SDS011;3468;42.824;23.240;2024-02-26T13:22:21;6.67;;;3.67;;
6858;SDS011;3468;42.824;23.240;2024-02-26T13:24:55;8.43;;;4.63;;
6858;SDS011;3468;42.824;23.240;2024-02-26T13:27:23;6.63;;;3.43;;
6858;SDS011;3468;42.824;23.240;2024-02-26T13:30:02;8.23;;;3.40;;
6858;SDS011;3468;42.824;23.240;2024-02-26T13:32:32;8.37;;;3.60;;
6858;SDS011;3468;42.824;23.240;2024-02-26T13:35:06;10.77;;;3.97;;
6858;SDS011;3468;42.824;23.240;2024-02-26T13:37:34;7.17;;;4.33;;
6858;SDS011;3468;42.824;23.240;2024-02-26T13:40:04;7.53;;;4.43;;
6858;SDS011;3468;42.824;23.240;2024-02-26T13:42:31;8.17;;;4.43;;
6858;SDS011;3468;42.824;23.240;2024-02-26T13:44:58;7.13;;;4.47;;
6858;SDS011;3468;42.824;23.240;2024-02-26T13:47:27;10.47;;;4.40;;
6858;SDS011;3468;42.824;23.240;2024-02-26T13:49:53;7.53;;;4.27;;
6858;SDS011;3468;42.824;23.240;2024-02-26T13:52:21;8.23;;;4.40;;
6858;SDS011;3468;42.824;23.240;2024-02-26T13:54:48;5.73;;;3.40;;
6858;SDS011;3468;42.824;23.240;2024-02-26T13:57:16;10.17;;;4.20;;
6858;SDS011;3468;42.824;23.240;2024-02-26T13:59:43;5.97;;;3.67;;
6858;SDS011;3468;42.824;23.240;2024-02-26T14:02:09;6.07;;;3.13;;
6858;SDS011;3468;42.824;23.240;2024-02-26T14:04:37;10.27;;;3.43;;
6858;SDS011;3468;42.824;23.240;2024-02-26T14:07:04;7.27;;;3.40;;
6858;SDS011;3468;42.824;23.240;2024-02-26T14:09:31;5.73;;;3.00;;
6858;SDS011;3468;42.824;23.240;2024-02-26T14:11:58;5.57;;;2.93;;
6858;SDS011;3468;42.824;23.240;2024-02-26T14:14:26;6.27;;;3.50;;
6858;SDS011;3468;42.824;23.240;2024-02-26T14:16:53;8.93;;;3.83;;
6858;SDS011;3468;42.824;23.240;2024-02-26T14:19:20;6.10;;;3.30;;
6858;SDS011;3468;42.824;23.240;2024-02-26T14:21:48;7.53;;;4.20;;
6858;SDS011;3468;42.824;23.240;2024-02-26T14:24:15;9.70;;;3.83;;
6858;SDS011;3468;42.824;23.240;2024-02-26T14:26:42;9.20;;;4.40;;
6858;SDS011;3468;42.824;23.240;2024-02-26T14:29:08;9.73;;;4.80;;
6858;SDS011;3468;42.824;23.240;2024-02-26T14:31:35;8.10;;;4.20;;
6858;SDS011;3468;42.824;23.240;2024-02-26T14:34:02;6.43;;;3.90;;
6858;SDS011;3468;42.824;23.240;2024-02-26T14:36:29;9.57;;;4.77;;
6858;SDS011;3468;42.824;23.240;2024-02-26T14:38:57;6.80;;;4.03;;
6858;SDS011;3468;42.824;23.240;2024-02-26T14:41:23;11.17;;;3.57;;
6858;SDS011;3468;42.824;23.240;2024-02-26T14:43:50;8.00;;;3.50;;
6858;SDS011;3468;42.824;23.240;2024-02-26T14:46:17;7.40;;;3.90;;
6858;SDS011;3468;42.824;23.240;2024-02-26T14:48:44;8.13;;;3.30;;
6858;SDS011;3468;42.824;23.240;2024-02-26T14:51:10;3.83;;;2.83;;